Date,TemperatureHighF,TemperatureAvgF,TemperatureLowF,DewpointHighF,DewpointAvgF,DewpointLowF,HumidityHigh,HumidityAvg,HumidityLow,PressureMaxIn,PressureMinIn,WindSpeedMaxMPH,WindSpeedAvgMPH,GustSpeedMaxMPH,PrecipitationSumIn
2013-4-23,64,52,39,53,46,38,95,81,57,29.95,29.81,10,5,16,0.52
2013-4-24,43,38,34,38,32,25,95,79,50,30.13,29.82,12,6,19,0.04
2013-4-25,39,37,36,33,32,31,83,81,76,30.13,30.07,6,3,11,0.00
2013-4-28,51,50,50,47,46,45,89,85,80,29.90,29.89,2,0,12,0.05
2013-4-30,74,63,56,62,56,52,86,76,64,29.89,29.83,11,6,21,0.11
2013-5-6,77,68,56,52,43,29,79,44,18,29.99,29.89,4,2,11,0.00
2013-5-7,78,67,49,56,50,46,94,57,37,30.00,29.92,4,1,8,0.00
2013-5-8,78,64,50,58,51,48,94,65,42,29.99,29.91,6,1,14,0.00
2013-5-9,81,63,47,58,51,44,94,69,29,29.94,29.84,5,1,12,0.04
2013-5-10,62,54,46,59,52,43,95,91,80,29.89,29.70,6,2,10,0.13
2013-5-11,52,45,36,49,42,33,95,88,67,29.96,29.79,15,3,23,0.02
2013-5-12,48,40,32,36,32,29,93,73,55,30.11,29.95,12,5,21,0.00
2013-5-13,56,44,30,35,29,22,95,60,28,30.19,30.06,7,2,15,0.00
2013-5-14,80,64,48,60,45,27,66,50,41,30.06,29.64,9,4,16,0.00
2013-5-15,76,72,56,60,53,46,75,53,42,29.77,29.55,11,4,16,0.00
2013-5-16,81,65,49,54,48,44,91,58,30,29.94,29.77,6,2,12,0.00
2013-5-17,79,67,56,52,47,41,70,49,35,30.03,29.93,7,3,12,0.00
2013-5-18,65,62,58,45,43,42,57,51,47,30.03,30.01,8,4,15,0.00
2013-5-20,89,80,69,70,66,61,86,63,40,29.80,29.69,8,5,20,0.00
2013-5-21,82,72,63,68,64,60,94,76,56,29.73,29.64,7,3,16,0.54
2013-5-22,71,66,60,67,61,-100,95,88,81,29.68,29.59,6,-10,11,0.11
2013-5-23,61,52,42,60,50,40,96,92,86,30.18,29.67,9,3,16,0.08
2013-5-24,55,46,35,45,39,33,94,78,54,30.37,30.18,7,3,15,0.00
2013-5-25,66,52,37,48,41,36,95,72,37,30.38,30.25,5,1,13,0.00
2013-5-26,70,58,43,48,42,38,94,61,33,30.30,30.15,5,2,11,0.00
2013-5-27,61,55,52,52,47,36,93,77,40,30.16,29.89,9,5,18,0.23
2013-5-28,78,68,54,70,63,52,96,86,72,29.89,29.74,8,4,21,0.75
2013-5-29,64,64,63,61,61,61,93,92,90,29.82,29.77,3,2,12,0.00
2013-6-11,83,74,59,70,65,58,97,76,55,29.89,29.78,3,1,11,0.00
2013-6-12,86,73,64,75,68,60,95,83,66,29.86,29.55,12,2,21,0.29
2013-6-13,73,65,56,62,58,53,95,81,60,29.94,29.53,12,5,28,0.06
2013-6-14,78,63,52,62,56,51,96,79,48,30.07,29.94,7,2,13,0.00
2013-6-15,74,62,55,65,58,54,96,87,68,30.04,29.94,4,1,11,0.22
2013-7-24,74,64,49,57,53,47,93,68,48,30.02,29.95,6,3,13,0.00
2013-7-25,75,59,52,59,54,50,95,84,53,30.07,30.00,4,1,10,0.00
2013-10-18,57,57,57,47,47,46,69,68,66,29.87,29.87,2,2,8,0.00
2013-11-22,42,42,42,40,40,40,93,93,93,30.18,30.18,5,5,5,0.00